Terminal Aerodrome Forecast
Issued by NWS Louisville, KY

Home | Current Version | Previous Version | Text Only | Print | Product List | Glossary On
Versions: 1 2 3 4 5 6 7 8 9 10 11 12 13 14 15
930
FTUS43 KLMK 200359 AAB
TAFLEX
TAF AMD
KLEX 200359Z 2004/2024 00000KT 3SM BR FEW250
      TEMPO 2004/2008 1SM BR BKN007
     FM200800 11003KT 1SM BR SCT005
      TEMPO 2010/2013 1/2SM FG BKN004
     FM201400 12006KT P6SM BKN200=

USA.gov is the U.S. government's official web portal to all federal, state and local government web resources and services.